sensor_id;sensor_type;location;lat;lon;timestamp;P1;durP1;ratioP1;P2;durP2;ratioP2
16177;SDS011;8195;51.220;9.746;2023-01-30T00:01:50;27.10;;;17.70;;
16177;SDS011;8195;51.220;9.746;2023-01-30T00:11:50;28.77;;;19.23;;
16177;SDS011;8195;51.220;9.746;2023-01-30T00:21:51;28.80;;;18.58;;
16177;SDS011;8195;51.220;9.746;2023-01-30T00:31:51;29.13;;;17.83;;
16177;SDS011;8195;51.220;9.746;2023-01-30T00:41:52;29.17;;;18.23;;
16177;SDS011;8195;51.220;9.746;2023-01-30T00:51:52;29.90;;;19.60;;
16177;SDS011;8195;51.220;9.746;2023-01-30T01:01:53;28.67;;;20.08;;
16177;SDS011;8195;51.220;9.746;2023-01-30T01:11:53;34.03;;;21.55;;
16177;SDS011;8195;51.220;9.746;2023-01-30T01:21:54;35.70;;;19.60;;
16177;SDS011;8195;51.220;9.746;2023-01-30T01:31:56;36.97;;;23.13;;
16177;SDS011;8195;51.220;9.746;2023-01-30T01:41:56;35.50;;;22.07;;
16177;SDS011;8195;51.220;9.746;2023-01-30T01:52:02;38.40;;;23.33;;
16177;SDS011;8195;51.220;9.746;2023-01-30T02:02:09;39.00;;;24.50;;
16177;SDS011;8195;51.220;9.746;2023-01-30T02:12:12;42.20;;;24.77;;
16177;SDS011;8195;51.220;9.746;2023-01-30T02:53:57;37.07;;;23.83;;
16177;SDS011;8195;51.220;9.746;2023-01-30T03:04:05;40.10;;;23.60;;
16177;SDS011;8195;51.220;9.746;2023-01-30T03:14:28;39.80;;;23.53;;
16177;SDS011;8195;51.220;9.746;2023-01-30T03:24:34;37.80;;;21.33;;
16177;SDS011;8195;51.220;9.746;2023-01-30T03:34:35;38.40;;;21.77;;
16177;SDS011;8195;51.220;9.746;2023-01-30T03:44:35;38.38;;;21.85;;
16177;SDS011;8195;51.220;9.746;2023-01-30T03:54:36;59.65;;;24.88;;
16177;SDS011;8195;51.220;9.746;2023-01-30T04:04:36;30.25;;;19.92;;
16177;SDS011;8195;51.220;9.746;2023-01-30T04:14:37;37.17;;;23.10;;
16177;SDS011;8195;51.220;9.746;2023-01-30T04:24:37;32.08;;;20.35;;
16177;SDS011;8195;51.220;9.746;2023-01-30T04:34:38;30.17;;;20.23;;
16177;SDS011;8195;51.220;9.746;2023-01-30T04:44:38;30.35;;;20.63;;
16177;SDS011;8195;51.220;9.746;2023-01-30T04:54:39;27.63;;;18.53;;
16177;SDS011;8195;51.220;9.746;2023-01-30T05:04:40;28.98;;;18.98;;
16177;SDS011;8195;51.220;9.746;2023-01-30T05:14:40;26.20;;;16.65;;
16177;SDS011;8195;51.220;9.746;2023-01-30T05:24:41;31.02;;;17.58;;
16177;SDS011;8195;51.220;9.746;2023-01-30T05:34:41;25.10;;;16.40;;
16177;SDS011;8195;51.220;9.746;2023-01-30T05:44:42;21.17;;;13.63;;
16177;SDS011;8195;51.220;9.746;2023-01-30T05:54:42;20.33;;;13.43;;
16177;SDS011;8195;51.220;9.746;2023-01-30T06:04:43;16.80;;;13.17;;
16177;SDS011;8195;51.220;9.746;2023-01-30T06:14:43;16.15;;;12.02;;
16177;SDS011;8195;51.220;9.746;2023-01-30T06:24:44;14.27;;;10.68;;
16177;SDS011;8195;51.220;9.746;2023-01-30T06:34:44;16.10;;;10.73;;
16177;SDS011;8195;51.220;9.746;2023-01-30T06:44:45;12.23;;;9.52;;
16177;SDS011;8195;51.220;9.746;2023-01-30T06:54:45;14.13;;;10.35;;
16177;SDS011;8195;51.220;9.746;2023-01-30T07:04:46;16.13;;;11.05;;
16177;SDS011;8195;51.220;9.746;2023-01-30T07:14:47;16.83;;;11.85;;
16177;SDS011;8195;51.220;9.746;2023-01-30T07:24:47;15.25;;;11.02;;
16177;SDS011;8195;51.220;9.746;2023-01-30T07:34:48;18.17;;;12.20;;
16177;SDS011;8195;51.220;9.746;2023-01-30T07:44:48;16.38;;;11.98;;
16177;SDS011;8195;51.220;9.746;2023-01-30T07:54:49;16.38;;;11.80;;
16177;SDS011;8195;51.220;9.746;2023-01-30T08:04:49;15.30;;;11.40;;
16177;SDS011;8195;51.220;9.746;2023-01-30T08:14:50;17.67;;;10.68;;
16177;SDS011;8195;51.220;9.746;2023-01-30T08:24:50;16.13;;;10.88;;
16177;SDS011;8195;51.220;9.746;2023-01-30T08:34:51;14.25;;;10.55;;
16177;SDS011;8195;51.220;9.746;2023-01-30T08:44:51;16.52;;;11.93;;
16177;SDS011;8195;51.220;9.746;2023-01-30T08:54:52;16.52;;;11.82;;
16177;SDS011;8195;51.220;9.746;2023-01-30T09:04:52;15.57;;;11.68;;
16177;SDS011;8195;51.220;9.746;2023-01-30T09:14:53;14.52;;;10.95;;
16177;SDS011;8195;51.220;9.746;2023-01-30T09:24:53;5.50;;;4.57;;
16177;SDS011;8195;51.220;9.746;2023-01-30T09:34:54;5.65;;;3.88;;
16177;SDS011;8195;51.220;9.746;2023-01-30T09:55:17;5.07;;;3.50;;
16177;SDS011;8195;51.220;9.746;2023-01-30T10:05:32;7.17;;;5.13;;
16177;SDS011;8195;51.220;9.746;2023-01-30T10:15:40;8.77;;;6.43;;
16177;SDS011;8195;51.220;9.746;2023-01-30T10:25:54;9.60;;;5.00;;
16177;SDS011;8195;51.220;9.746;2023-01-30T10:36:09;8.70;;;6.13;;
16177;SDS011;8195;51.220;9.746;2023-01-30T10:46:21;10.23;;;5.30;;
16177;SDS011;8195;51.220;9.746;2023-01-30T11:07:01;7.10;;;4.90;;
16177;SDS011;8195;51.220;9.746;2023-01-30T11:17:02;10.37;;;5.23;;
16177;SDS011;8195;51.220;9.746;2023-01-30T11:37:21;12.10;;;6.93;;
16177;SDS011;8195;51.220;9.746;2023-01-30T11:47:26;11.87;;;6.57;;
16177;SDS011;8195;51.220;9.746;2023-01-30T11:57:27;11.10;;;6.40;;
16177;SDS011;8195;51.220;9.746;2023-01-30T12:07:29;12.20;;;5.73;;
16177;SDS011;8195;51.220;9.746;2023-01-30T13:19:15;6.13;;;4.23;;
16177;SDS011;8195;51.220;9.746;2023-01-30T13:29:30;8.20;;;4.00;;
16177;SDS011;8195;51.220;9.746;2023-01-30T14:10:33;8.27;;;3.13;;
16177;SDS011;8195;51.220;9.746;2023-01-30T14:20:39;6.77;;;2.97;;
16177;SDS011;8195;51.220;9.746;2023-01-30T14:40:47;9.63;;;5.50;;
16177;SDS011;8195;51.220;9.746;2023-01-30T14:51:15;8.53;;;4.17;;
16177;SDS011;8195;51.220;9.746;2023-01-30T15:12:21;9.13;;;4.40;;
16177;SDS011;8195;51.220;9.746;2023-01-30T15:53:49;3.47;;;1.93;;
16177;SDS011;8195;51.220;9.746;2023-01-30T16:03:50;7.85;;;3.50;;
16177;SDS011;8195;51.220;9.746;2023-01-30T16:13:50;4.70;;;2.23;;
16177;SDS011;8195;51.220;9.746;2023-01-30T16:23:52;4.65;;;2.47;;
16177;SDS011;8195;51.220;9.746;2023-01-30T16:34:03;9.97;;;2.63;;
16177;SDS011;8195;51.220;9.746;2023-01-30T16:44:17;7.90;;;3.03;;
16177;SDS011;8195;51.220;9.746;2023-01-30T16:54:22;6.83;;;3.57;;
16177;SDS011;8195;51.220;9.746;2023-01-30T17:04:27;7.87;;;4.43;;
16177;SDS011;8195;51.220;9.746;2023-01-30T17:14:30;12.43;;;6.33;;
16177;SDS011;8195;51.220;9.746;2023-01-30T17:24:30;8.90;;;3.50;;
16177;SDS011;8195;51.220;9.746;2023-01-30T17:34:31;9.27;;;5.73;;
16177;SDS011;8195;51.220;9.746;2023-01-30T17:44:32;12.60;;;7.30;;
16177;SDS011;8195;51.220;9.746;2023-01-30T17:54:32;11.90;;;4.68;;
16177;SDS011;8195;51.220;9.746;2023-01-30T18:04:33;9.10;;;4.80;;
16177;SDS011;8195;51.220;9.746;2023-01-30T18:14:33;10.57;;;5.33;;
16177;SDS011;8195;51.220;9.746;2023-01-30T18:24:34;11.15;;;4.22;;
16177;SDS011;8195;51.220;9.746;2023-01-30T18:34:35;11.77;;;4.50;;
16177;SDS011;8195;51.220;9.746;2023-01-30T18:44:35;23.20;;;11.70;;
16177;SDS011;8195;51.220;9.746;2023-01-30T18:54:36;10.40;;;4.72;;
16177;SDS011;8195;51.220;9.746;2023-01-30T19:04:36;7.93;;;4.53;;
16177;SDS011;8195;51.220;9.746;2023-01-30T19:14:37;9.52;;;4.60;;
16177;SDS011;8195;51.220;9.746;2023-01-30T19:24:37;12.93;;;4.00;;
16177;SDS011;8195;51.220;9.746;2023-01-30T19:34:38;10.93;;;3.53;;
16177;SDS011;8195;51.220;9.746;2023-01-30T19:44:38;11.43;;;4.22;;
16177;SDS011;8195;51.220;9.746;2023-01-30T19:54:39;12.50;;;4.07;;
16177;SDS011;8195;51.220;9.746;2023-01-30T20:04:40;14.45;;;5.28;;
16177;SDS011;8195;51.220;9.746;2023-01-30T20:14:40;10.00;;;4.60;;
16177;SDS011;8195;51.220;9.746;2023-01-30T20:24:41;12.05;;;3.90;;
16177;SDS011;8195;51.220;9.746;2023-01-30T20:34:41;12.43;;;6.13;;
16177;SDS011;8195;51.220;9.746;2023-01-30T20:44:42;11.52;;;4.38;;
16177;SDS011;8195;51.220;9.746;2023-01-30T20:54:42;8.65;;;4.40;;
16177;SDS011;8195;51.220;9.746;2023-01-30T21:04:43;11.68;;;3.15;;
16177;SDS011;8195;51.220;9.746;2023-01-30T21:14:43;5.93;;;2.83;;
16177;SDS011;8195;51.220;9.746;2023-01-30T21:24:44;9.93;;;3.00;;
16177;SDS011;8195;51.220;9.746;2023-01-30T21:34:45;8.50;;;3.47;;
16177;SDS011;8195;51.220;9.746;2023-01-30T21:44:45;6.57;;;3.40;;
16177;SDS011;8195;51.220;9.746;2023-01-30T21:54:46;9.52;;;3.38;;
16177;SDS011;8195;51.220;9.746;2023-01-30T22:04:46;11.27;;;3.90;;
16177;SDS011;8195;51.220;9.746;2023-01-30T22:14:47;10.60;;;4.40;;
16177;SDS011;8195;51.220;9.746;2023-01-30T22:24:47;11.15;;;4.25;;
16177;SDS011;8195;51.220;9.746;2023-01-30T22:34:48;9.43;;;3.33;;
16177;SDS011;8195;51.220;9.746;2023-01-30T22:44:48;9.17;;;3.27;;
16177;SDS011;8195;51.220;9.746;2023-01-30T22:54:49;10.85;;;4.35;;
16177;SDS011;8195;51.220;9.746;2023-01-30T23:04:49;15.27;;;4.32;;
16177;SDS011;8195;51.220;9.746;2023-01-30T23:14:50;13.75;;;4.40;;
16177;SDS011;8195;51.220;9.746;2023-01-30T23:24:51;16.58;;;4.13;;
16177;SDS011;8195;51.220;9.746;2023-01-30T23:34:51;15.27;;;4.25;;
16177;SDS011;8195;51.220;9.746;2023-01-30T23:44:52;14.18;;;4.10;;
16177;SDS011;8195;51.220;9.746;2023-01-30T23:54:52;10.80;;;3.58;;
